createdAt,value
2023-03-28T00:00:07.399Z,2.25
2023-03-28T00:01:02.653Z,2.26
2023-03-28T00:01:58.354Z,2.33
2023-03-28T00:02:53.633Z,2.32
2023-03-28T00:03:49.345Z,2.32
2023-03-28T00:04:44.595Z,2.30
2023-03-28T00:05:39.808Z,2.28
2023-03-28T00:06:35.579Z,2.24
2023-03-28T00:07:30.781Z,2.19
2023-03-28T00:08:25.952Z,2.16
2023-03-28T00:09:22.394Z,2.12
2023-03-28T00:10:17.312Z,2.10
2023-03-28T00:11:12.312Z,2.08
2023-03-28T00:12:07.423Z,2.03
2023-03-28T00:13:02.484Z,2.00
2023-03-28T00:13:57.615Z,2.03
2023-03-28T00:14:52.778Z,2.05
2023-03-28T00:15:47.735Z,2.03
2023-03-28T00:16:42.790Z,1.97
2023-03-28T00:17:37.896Z,1.94
2023-03-28T00:18:34.440Z,1.99
2023-03-28T00:19:29.490Z,1.96
2023-03-28T00:20:24.437Z,1.90
2023-03-28T00:21:19.498Z,1.84
2023-03-28T00:22:14.556Z,1.83
2023-03-28T00:23:09.617Z,1.81
2023-03-28T00:24:04.804Z,1.75
2023-03-28T00:24:59.811Z,1.72
2023-03-28T00:25:54.932Z,1.76
2023-03-28T00:26:50.145Z,1.85
2023-03-28T00:27:45.265Z,1.87
2023-03-28T00:28:40.350Z,1.85
2023-03-28T00:29:38.374Z,1.83
2023-03-28T00:30:33.355Z,1.79
2023-03-28T00:31:28.311Z,1.78
2023-03-28T00:32:23.451Z,1.79
2023-03-28T00:33:18.417Z,1.80
2023-03-28T00:34:13.588Z,1.77
2023-03-28T00:35:08.534Z,1.82
2023-03-28T00:36:04.006Z,1.84
2023-03-28T00:36:58.703Z,1.87
2023-03-28T00:37:53.823Z,1.86
2023-03-28T00:38:49.018Z,1.85
2023-03-28T00:39:44.364Z,1.85
2023-03-28T00:40:39.157Z,1.84
2023-03-28T00:41:34.305Z,1.80
2023-03-28T00:42:29.383Z,1.80
2023-03-28T00:43:24.504Z,1.79
2023-03-28T00:44:19.603Z,1.78
2023-03-28T00:45:14.710Z,1.73
2023-03-28T00:46:09.723Z,1.71
2023-03-28T00:47:05.612Z,1.67
2023-03-28T00:48:00.774Z,1.63
2023-03-28T00:48:55.890Z,1.63
2023-03-28T00:49:51.839Z,1.62
2023-03-28T00:50:47.018Z,1.65
2023-03-28T00:51:42.791Z,1.68
2023-03-28T00:52:38.015Z,1.65
2023-03-28T00:53:33.285Z,1.64
2023-03-28T00:54:29.109Z,1.62
2023-03-28T00:55:24.529Z,1.62
2023-03-28T00:56:19.646Z,1.59
2023-03-28T00:57:16.424Z,1.56
2023-03-28T00:58:11.595Z,1.55
2023-03-28T00:59:07.353Z,1.56
2023-03-28T01:00:02.597Z,1.57
2023-03-28T01:00:57.841Z,1.55
2023-03-28T01:01:53.708Z,1.54
2023-03-28T01:02:48.931Z,1.56
2023-03-28T01:03:44.867Z,1.57
2023-03-28T01:04:39.716Z,1.59
2023-03-28T01:05:35.018Z,1.60
2023-03-28T01:06:30.816Z,1.60
2023-03-28T01:07:26.097Z,1.58
2023-03-28T01:08:21.419Z,1.57
2023-03-28T01:09:17.529Z,1.66
2023-03-28T01:10:12.749Z,1.73
2023-03-28T01:11:08.607Z,1.75
2023-03-28T01:12:03.807Z,1.77
2023-03-28T01:12:59.111Z,1.80
2023-03-28T01:13:54.731Z,1.79
2023-03-28T01:14:49.978Z,1.76
2023-03-28T01:15:45.990Z,1.71
2023-03-28T01:16:41.151Z,1.67
2023-03-28T01:17:36.396Z,1.65
2023-03-28T01:18:32.078Z,1.60
2023-03-28T01:19:27.331Z,1.55
2023-03-28T01:20:22.577Z,1.49
2023-03-28T01:21:18.917Z,1.46
2023-03-28T01:22:14.045Z,1.41
2023-03-28T01:23:09.818Z,1.36
2023-03-28T01:24:11.567Z,1.39
2023-03-28T01:25:01.761Z,1.42
2023-03-28T01:25:56.241Z,1.41
2023-03-28T01:26:51.993Z,1.40
2023-03-28T01:27:47.168Z,1.38
2023-03-28T01:28:42.337Z,1.35
2023-03-28T01:29:38.284Z,1.32
2023-03-28T01:30:33.485Z,1.34
2023-03-28T01:31:29.550Z,1.37
2023-03-28T01:32:24.572Z,1.36
2023-03-28T01:33:19.870Z,1.30
2023-03-28T01:34:15.626Z,1.28
2023-03-28T01:35:10.873Z,1.31
2023-03-28T01:36:06.067Z,1.34
2023-03-28T01:37:02.394Z,1.34
2023-03-28T01:37:57.556Z,1.34
2023-03-28T01:38:53.479Z,1.33
2023-03-28T01:39:48.603Z,1.36
2023-03-28T01:40:43.941Z,1.36
2023-03-28T01:41:39.569Z,1.35
2023-03-28T01:42:34.776Z,1.38
2023-03-28T01:43:30.528Z,1.40
2023-03-28T01:44:25.762Z,1.36
2023-03-28T01:45:21.086Z,1.37
2023-03-28T01:46:16.287Z,1.43
2023-03-28T01:47:11.352Z,1.51
2023-03-28T01:48:07.196Z,1.56
2023-03-28T01:49:02.342Z,1.60
2023-03-28T01:49:57.731Z,1.61
2023-03-28T01:50:53.397Z,1.62
2023-03-28T01:51:48.689Z,1.62
2023-03-28T01:52:44.464Z,1.64
2023-03-28T01:53:39.649Z,1.63
2023-03-28T01:54:35.053Z,1.56
2023-03-28T01:55:30.723Z,1.53
2023-03-28T01:56:26.003Z,1.51
2023-03-28T01:57:21.470Z,1.53
2023-03-28T01:58:17.429Z,1.50
2023-03-28T01:59:12.660Z,1.50
2023-03-28T02:00:08.473Z,1.50
2023-03-28T02:01:03.727Z,1.52
2023-03-28T02:01:58.874Z,1.53
2023-03-28T02:02:54.103Z,1.53
2023-03-28T02:03:49.449Z,1.56
2023-03-28T02:04:44.413Z,1.59
2023-03-28T02:05:39.560Z,1.66
2023-03-28T02:06:34.651Z,1.67
2023-03-28T02:07:29.945Z,1.71
2023-03-28T02:08:24.747Z,1.76
2023-03-28T02:09:19.901Z,1.77
2023-03-28T02:10:14.945Z,1.82
2023-03-28T02:11:10.130Z,1.76
2023-03-28T02:12:08.355Z,1.71
2023-03-28T02:13:03.322Z,1.66
2023-03-28T02:13:58.284Z,1.60
2023-03-28T02:14:53.378Z,1.53
2023-03-28T02:15:48.483Z,1.45
2023-03-28T02:16:43.639Z,1.38
2023-03-28T02:17:38.885Z,1.34
2023-03-28T02:18:33.715Z,1.33
2023-03-28T02:19:28.701Z,1.34
2023-03-28T02:20:23.784Z,1.32
2023-03-28T02:21:18.795Z,1.30
2023-03-28T02:22:13.907Z,1.29
2023-03-28T02:23:08.872Z,1.27
2023-03-28T02:24:04.020Z,1.27
2023-03-28T02:24:59.067Z,1.26
2023-03-28T02:25:54.202Z,1.26
2023-03-28T02:26:49.264Z,1.24
2023-03-28T02:27:44.417Z,1.18
2023-03-28T02:28:39.364Z,1.16
2023-03-28T02:29:34.464Z,1.14
2023-03-28T02:30:29.556Z,1.13
2023-03-28T02:31:24.706Z,1.12
2023-03-28T02:32:19.739Z,1.12
2023-03-28T02:33:15.072Z,1.12
2023-03-28T02:34:10.031Z,1.10
2023-03-28T02:35:05.229Z,1.11
2023-03-28T02:36:00.609Z,1.16
2023-03-28T02:36:57.161Z,1.18
2023-03-28T02:37:50.643Z,1.17
2023-03-28T02:38:46.002Z,1.19
2023-03-28T02:39:40.996Z,1.17
2023-03-28T02:40:36.326Z,1.14
2023-03-28T02:41:31.357Z,1.14
2023-03-28T02:42:26.708Z,1.12
2023-03-28T02:43:21.842Z,1.10
2023-03-28T02:44:20.760Z,1.05
2023-03-28T02:45:12.320Z,1.04
2023-03-28T02:46:07.520Z,1.06
2023-03-28T02:47:02.686Z,1.06
2023-03-28T02:47:57.891Z,1.01
2023-03-28T02:48:53.169Z,0.97
2023-03-28T02:49:50.680Z,0.95
2023-03-28T02:50:43.293Z,0.93
2023-03-28T02:51:38.485Z,0.93
2023-03-28T02:52:33.768Z,0.94
2023-03-28T02:53:28.823Z,0.95
2023-03-28T02:54:24.143Z,0.93
2023-03-28T02:55:19.190Z,0.94
2023-03-28T02:56:14.346Z,0.92
2023-03-28T02:57:09.719Z,0.90
2023-03-28T02:58:04.705Z,0.89
2023-03-28T02:58:59.876Z,0.87
2023-03-28T02:59:55.221Z,0.83
2023-03-28T03:00:50.268Z,0.81
2023-03-28T03:01:45.443Z,0.80
2023-03-28T03:02:40.649Z,0.81
2023-03-28T03:03:35.855Z,0.81
2023-03-28T03:04:31.094Z,0.81
2023-03-28T03:05:26.406Z,0.82
2023-03-28T03:06:21.442Z,0.80
2023-03-28T03:07:16.601Z,0.80
2023-03-28T03:08:11.780Z,0.79
2023-03-28T03:09:06.907Z,0.78
2023-03-28T03:10:02.161Z,0.77
2023-03-28T03:10:57.040Z,0.79
2023-03-28T03:11:52.066Z,0.81
2023-03-28T03:12:47.145Z,0.82
2023-03-28T03:13:46.668Z,0.81
2023-03-28T03:14:42.085Z,0.81
2023-03-28T03:15:37.088Z,0.81
2023-03-28T03:16:32.803Z,0.80
2023-03-28T03:17:28.001Z,0.83
2023-03-28T03:18:23.155Z,0.84
2023-03-28T03:19:19.453Z,0.83
2023-03-28T03:20:14.844Z,0.83
2023-03-28T03:21:10.442Z,0.84
2023-03-28T03:22:05.603Z,0.84
2023-03-28T03:23:00.788Z,0.85
2023-03-28T03:23:56.665Z,0.84
2023-03-28T03:24:51.915Z,0.84
2023-03-28T03:25:47.747Z,0.85
2023-03-28T03:26:42.840Z,0.85
2023-03-28T03:27:38.119Z,0.83
2023-03-28T03:28:34.046Z,0.82
2023-03-28T03:29:39.496Z,0.83
2023-03-28T03:30:25.584Z,0.81
2023-03-28T03:31:19.665Z,0.81
2023-03-28T03:32:15.490Z,0.81
2023-03-28T03:33:10.597Z,0.82
2023-03-28T03:34:05.770Z,0.82
2023-03-28T03:35:02.074Z,0.81
2023-03-28T03:35:57.477Z,0.79
2023-03-28T03:36:52.966Z,0.77
2023-03-28T03:37:48.145Z,0.76
2023-03-28T03:38:43.320Z,0.73
2023-03-28T03:39:39.227Z,0.73
2023-03-28T03:40:34.568Z,0.72
2023-03-28T03:41:30.319Z,0.71
2023-03-28T03:42:25.350Z,0.71
2023-03-28T03:43:20.689Z,0.70
2023-03-28T03:44:16.449Z,0.70
2023-03-28T03:45:11.649Z,0.73
2023-03-28T03:46:07.095Z,0.72
2023-03-28T03:47:03.017Z,0.71
2023-03-28T03:47:58.201Z,0.69
2023-03-28T03:48:54.107Z,0.68
2023-03-28T03:49:49.248Z,0.71
2023-03-28T03:50:44.614Z,0.76
2023-03-28T03:51:40.228Z,0.80
2023-03-28T03:52:35.444Z,0.83
2023-03-28T03:53:31.224Z,0.84
2023-03-28T03:54:26.393Z,0.80
2023-03-28T03:55:21.716Z,0.76
2023-03-28T03:56:17.522Z,0.74
2023-03-28T03:57:12.717Z,0.71
2023-03-28T03:58:07.918Z,0.67
2023-03-28T03:59:04.030Z,0.62
2023-03-28T03:59:59.252Z,0.58
2023-03-28T04:00:54.997Z,0.57
2023-03-28T04:01:50.184Z,0.56
2023-03-28T04:02:45.241Z,0.56
2023-03-28T04:03:41.167Z,0.56
2023-03-28T04:04:36.319Z,0.58
2023-03-28T04:05:32.218Z,0.62
2023-03-28T04:06:27.366Z,0.68
2023-03-28T04:07:22.590Z,0.73
2023-03-28T04:08:18.335Z,0.76
2023-03-28T04:09:13.556Z,0.79
2023-03-28T04:10:08.701Z,0.78
2023-03-28T04:11:05.195Z,0.78
2023-03-28T04:12:00.236Z,0.78
2023-03-28T04:12:56.001Z,0.78
2023-03-28T04:13:51.147Z,0.80
2023-03-28T04:14:46.327Z,0.83
2023-03-28T04:15:41.387Z,0.82
2023-03-28T04:16:40.366Z,0.82
2023-03-28T04:17:32.482Z,0.81
2023-03-28T04:18:26.634Z,0.83
2023-03-28T04:19:21.669Z,0.85
2023-03-28T04:20:16.697Z,0.86
2023-03-28T04:21:11.862Z,0.85
2023-03-28T04:22:06.955Z,0.87
2023-03-28T04:23:01.921Z,0.93
2023-03-28T04:23:57.070Z,0.99
2023-03-28T04:24:52.063Z,1.01
2023-03-28T04:25:47.156Z,1.02
2023-03-28T04:26:42.249Z,1.02
2023-03-28T04:27:38.037Z,1.01
2023-03-28T04:28:33.184Z,1.00
2023-03-28T04:29:28.403Z,0.97
2023-03-28T04:30:24.110Z,0.93
2023-03-28T04:31:19.347Z,0.92
2023-03-28T04:32:14.525Z,0.91
2023-03-28T04:33:09.768Z,0.91
2023-03-28T04:34:04.885Z,0.92
2023-03-28T04:35:00.119Z,0.94
2023-03-28T04:35:55.552Z,0.99
2023-03-28T04:36:51.459Z,1.03
2023-03-28T04:37:46.621Z,1.05
2023-03-28T04:38:41.937Z,1.10
2023-03-28T04:39:37.536Z,1.11
2023-03-28T04:40:32.725Z,1.14
2023-03-28T04:41:27.977Z,1.11
2023-03-28T04:42:23.132Z,1.14
2023-03-28T04:43:18.172Z,1.13
2023-03-28T04:44:13.316Z,1.14
2023-03-28T04:45:08.411Z,1.16
2023-03-28T04:46:03.732Z,1.17
2023-03-28T04:46:58.731Z,1.18
2023-03-28T04:47:53.691Z,1.17
2023-03-28T04:48:48.739Z,1.15
2023-03-28T04:49:44.782Z,1.09
2023-03-28T04:50:38.839Z,1.05
2023-03-28T04:51:35.890Z,1.02
2023-03-28T04:52:30.870Z,0.98
2023-03-28T04:53:25.886Z,0.95
2023-03-28T04:54:20.875Z,0.93
2023-03-28T04:55:15.991Z,0.92
2023-03-28T04:56:10.917Z,0.89
2023-03-28T04:57:06.224Z,0.91
2023-03-28T04:58:01.051Z,0.96
2023-03-28T04:58:56.220Z,1.00
2023-03-28T04:59:51.304Z,0.98
2023-03-28T05:00:46.455Z,0.92
2023-03-28T05:01:41.647Z,0.91
2023-03-28T05:02:37.264Z,0.90
2023-03-28T05:03:32.347Z,0.89
2023-03-28T05:04:27.579Z,0.85
2023-03-28T05:05:23.339Z,0.84
2023-03-28T05:06:18.665Z,0.83
2023-03-28T05:07:14.614Z,0.83
2023-03-28T05:08:09.844Z,0.82
2023-03-28T05:09:05.128Z,0.83
2023-03-28T05:10:01.061Z,0.85
2023-03-28T05:10:56.403Z,0.89
2023-03-28T05:11:52.058Z,0.87
2023-03-28T05:12:47.996Z,0.85
2023-03-28T05:13:43.378Z,0.84
2023-03-28T05:14:39.155Z,0.90
2023-03-28T05:15:34.574Z,0.95
2023-03-28T05:16:29.946Z,0.97
2023-03-28T05:17:25.792Z,0.97
2023-03-28T05:18:20.822Z,1.00
2023-03-28T05:19:16.659Z,1.13
2023-03-28T05:20:12.029Z,1.15
2023-03-28T05:21:07.540Z,1.14
2023-03-28T05:22:03.343Z,1.14
2023-03-28T05:22:58.565Z,1.16
2023-03-28T05:23:53.765Z,1.15
2023-03-28T05:24:50.101Z,1.16
2023-03-28T05:25:45.451Z,1.15
2023-03-28T05:26:41.268Z,1.18
2023-03-28T05:27:36.608Z,1.20
2023-03-28T05:28:31.934Z,1.21
2023-03-28T05:29:27.578Z,1.24
2023-03-28T05:30:22.895Z,1.28
2023-03-28T05:31:18.583Z,1.28
2023-03-28T05:32:14.013Z,1.27
2023-03-28T05:33:09.270Z,1.25
2023-03-28T05:34:05.117Z,1.25
2023-03-28T05:35:00.415Z,1.27
2023-03-28T05:35:55.865Z,1.27
2023-03-28T05:36:52.114Z,1.28
2023-03-28T05:37:47.268Z,1.29
2023-03-28T05:38:42.940Z,1.30
2023-03-28T05:39:38.271Z,1.31
2023-03-28T05:40:33.503Z,1.31
2023-03-28T05:41:29.609Z,1.27
2023-03-28T05:42:24.725Z,1.24
2023-03-28T05:43:20.736Z,1.23
2023-03-28T05:44:17.470Z,1.21
2023-03-28T05:45:11.267Z,1.17
2023-03-28T05:46:06.610Z,1.17
2023-03-28T05:47:01.787Z,1.16
2023-03-28T05:47:56.750Z,1.17
2023-03-28T05:48:57.132Z,1.15
2023-03-28T05:49:54.810Z,1.18
2023-03-28T05:50:47.798Z,1.20
2023-03-28T05:51:43.740Z,1.22
2023-03-28T05:52:39.066Z,1.27
2023-03-28T05:53:34.615Z,1.30
2023-03-28T05:54:30.670Z,1.33
2023-03-28T05:55:26.193Z,1.35
2023-03-28T05:56:22.041Z,1.37
2023-03-28T05:57:17.404Z,1.40
2023-03-28T05:58:12.791Z,1.42
2023-03-28T05:59:08.553Z,1.47
2023-03-28T06:00:03.969Z,1.50
2023-03-28T06:00:59.976Z,1.53
2023-03-28T06:01:55.270Z,1.55
2023-03-28T06:02:50.586Z,1.59
2023-03-28T06:03:46.068Z,1.57
2023-03-28T06:04:41.345Z,1.53
2023-03-28T06:05:37.198Z,1.52
2023-03-28T06:06:32.720Z,1.51
2023-03-28T06:07:39.193Z,1.52
2023-03-28T06:08:24.878Z,1.56
2023-03-28T06:09:19.291Z,1.60
2023-03-28T06:10:14.754Z,1.66
2023-03-28T06:11:10.233Z,1.73
2023-03-28T06:12:05.130Z,1.79
2023-03-28T06:13:00.231Z,1.82
2023-03-28T06:13:55.310Z,1.88
2023-03-28T06:14:50.410Z,1.97
2023-03-28T06:15:45.534Z,2.01
2023-03-28T06:16:40.612Z,2.01
2023-03-28T06:17:35.662Z,1.96
2023-03-28T06:18:30.624Z,1.91
2023-03-28T06:19:25.737Z,1.87
2023-03-28T06:20:20.666Z,1.84
2023-03-28T06:21:15.773Z,1.83
2023-03-28T06:22:10.807Z,1.82
2023-03-28T06:23:05.930Z,1.83
2023-03-28T06:24:00.938Z,1.86
2023-03-28T06:24:56.031Z,1.84
2023-03-28T06:25:50.965Z,1.85
2023-03-28T06:26:46.124Z,1.83
2023-03-28T06:27:41.080Z,1.84
2023-03-28T06:28:38.854Z,1.89
2023-03-28T06:29:33.863Z,2.00
2023-03-28T06:30:28.995Z,2.09
2023-03-28T06:31:24.201Z,2.16
2023-03-28T06:32:19.218Z,2.17
2023-03-28T06:33:14.173Z,2.20
2023-03-28T06:34:09.169Z,2.25
2023-03-28T06:35:04.249Z,2.27
2023-03-28T06:35:59.676Z,2.34
2023-03-28T06:36:54.428Z,2.40
2023-03-28T06:37:50.618Z,2.49
2023-03-28T06:38:46.164Z,2.62
2023-03-28T06:39:41.961Z,2.79
2023-03-28T06:40:37.440Z,2.92
2023-03-28T06:41:32.833Z,3.04
2023-03-28T06:42:28.825Z,3.15
2023-03-28T06:43:24.308Z,3.28
2023-03-28T06:44:19.980Z,3.42
2023-03-28T06:45:15.517Z,3.44
2023-03-28T06:46:10.996Z,3.43
2023-03-28T06:47:06.767Z,3.35
2023-03-28T06:48:02.122Z,3.23
2023-03-28T06:48:57.501Z,3.28
2023-03-28T06:49:53.876Z,3.28
2023-03-28T06:50:49.267Z,3.37
2023-03-28T06:51:44.989Z,3.52
2023-03-28T06:52:40.485Z,3.61
2023-03-28T06:53:35.966Z,3.69
2023-03-28T06:54:31.576Z,3.79
2023-03-28T06:55:27.114Z,3.88
2023-03-28T06:56:22.742Z,3.97
2023-03-28T06:57:18.106Z,4.03
2023-03-28T06:58:13.424Z,4.07
2023-03-28T06:59:09.165Z,4.14
2023-03-28T07:00:04.697Z,4.23
2023-03-28T07:01:00.210Z,4.25
2023-03-28T07:01:56.617Z,4.13
2023-03-28T07:02:52.002Z,4.01
2023-03-28T07:03:49.946Z,4.01
2023-03-28T07:04:43.058Z,4.14
2023-03-28T07:05:38.604Z,4.26
2023-03-28T07:06:34.204Z,4.20
2023-03-28T07:07:29.709Z,4.24
2023-03-28T07:08:25.455Z,4.36
2023-03-28T07:09:20.928Z,4.45
2023-03-28T07:10:16.413Z,4.52
2023-03-28T07:11:12.046Z,4.56
2023-03-28T07:12:07.436Z,4.49
2023-03-28T07:13:02.945Z,4.55
2023-03-28T07:13:59.278Z,4.52
2023-03-28T07:14:54.665Z,4.30
2023-03-28T07:15:50.476Z,4.33
2023-03-28T07:16:45.913Z,4.51
2023-03-28T07:17:41.366Z,4.60
2023-03-28T07:18:37.286Z,4.57
2023-03-28T07:19:32.620Z,4.43
2023-03-28T07:20:28.638Z,4.22
2023-03-28T07:21:23.838Z,3.95
2023-03-28T07:22:19.529Z,3.97
2023-03-28T07:23:15.238Z,4.13
2023-03-28T07:24:10.702Z,4.23
2023-03-28T07:25:06.054Z,4.34
2023-03-28T07:26:04.884Z,4.25
2023-03-28T07:27:15.326Z,4.13
2023-03-28T07:28:27.793Z,3.77
2023-03-28T07:29:22.362Z,4.04
2023-03-28T07:30:18.103Z,4.38
2023-03-28T07:31:13.677Z,4.46
2023-03-28T07:32:09.053Z,4.37
2023-03-28T07:33:14.833Z,4.33
2023-03-28T07:34:01.278Z,4.35
2023-03-28T07:34:55.601Z,4.51
2023-03-28T07:35:51.365Z,4.80
2023-03-28T07:36:46.875Z,4.86
2023-03-28T07:37:42.287Z,4.81
2023-03-28T07:38:37.661Z,4.78
2023-03-28T07:39:33.055Z,4.72
2023-03-28T07:40:28.724Z,4.71
2023-03-28T07:41:24.196Z,4.96
2023-03-28T07:42:19.683Z,5.00
2023-03-28T07:43:15.148Z,5.17
2023-03-28T07:44:10.539Z,5.15
2023-03-28T07:45:05.916Z,4.94
2023-03-28T07:46:01.343Z,4.67
2023-03-28T07:46:56.742Z,4.55
2023-03-28T07:47:52.128Z,4.44
2023-03-28T07:48:47.517Z,4.21
2023-03-28T07:49:43.006Z,3.90
2023-03-28T07:50:38.565Z,4.02
2023-03-28T07:51:33.758Z,4.23
2023-03-28T07:52:29.156Z,4.41
2023-03-28T07:53:24.593Z,4.41
2023-03-28T07:54:20.203Z,4.28
2023-03-28T07:55:15.846Z,4.63
2023-03-28T07:56:11.179Z,5.03
2023-03-28T07:57:06.697Z,5.32
2023-03-28T07:58:02.177Z,5.40
2023-03-28T07:58:57.625Z,5.51
2023-03-28T07:59:53.264Z,5.80
2023-03-28T08:00:48.795Z,5.66
2023-03-28T08:01:44.089Z,5.62
2023-03-28T08:02:41.986Z,5.34
2023-03-28T08:03:35.172Z,5.27
2023-03-28T08:04:30.654Z,5.51
2023-03-28T08:05:26.100Z,5.75
2023-03-28T08:06:31.767Z,6.01
2023-03-28T08:07:17.822Z,6.26
2023-03-28T08:08:12.235Z,6.54
2023-03-28T08:09:07.699Z,6.86
2023-03-28T08:10:03.178Z,7.18
2023-03-28T08:10:58.776Z,7.16
2023-03-28T08:11:54.212Z,7.07
2023-03-28T08:12:49.623Z,7.02
2023-03-28T08:13:45.173Z,6.86
2023-03-28T08:14:40.417Z,6.65
2023-03-28T08:15:35.942Z,6.56
2023-03-28T08:16:31.209Z,6.59
2023-03-28T08:17:26.734Z,6.49
2023-03-28T08:18:22.325Z,6.70
2023-03-28T08:19:17.764Z,6.91
2023-03-28T08:20:13.452Z,7.06
2023-03-28T08:21:08.634Z,7.29
2023-03-28T08:22:04.126Z,7.44
2023-03-28T08:22:59.475Z,7.53
2023-03-28T08:23:54.961Z,7.72
2023-03-28T08:24:50.458Z,8.05
2023-03-28T08:25:45.687Z,8.34
2023-03-28T08:26:41.162Z,8.37
2023-03-28T08:27:36.538Z,8.40
2023-03-28T08:28:31.957Z,8.61
2023-03-28T08:29:27.440Z,8.53
2023-03-28T08:30:22.916Z,8.55
2023-03-28T08:31:18.224Z,8.20
2023-03-28T08:32:13.638Z,8.00
2023-03-28T08:33:08.817Z,7.85
2023-03-28T08:34:03.811Z,7.66
2023-03-28T08:34:59.078Z,7.61
2023-03-28T08:35:53.971Z,7.46
2023-03-28T08:36:49.053Z,7.61
2023-03-28T08:37:44.116Z,7.67
2023-03-28T08:38:39.151Z,7.60
2023-03-28T08:39:34.337Z,7.35
2023-03-28T08:40:29.231Z,7.05
2023-03-28T08:41:24.253Z,6.78
2023-03-28T08:42:19.326Z,6.84
2023-03-28T08:43:14.448Z,6.79
2023-03-28T08:44:09.795Z,6.72
2023-03-28T08:45:04.887Z,6.55
2023-03-28T08:46:00.263Z,6.41
2023-03-28T08:46:55.772Z,6.37
2023-03-28T08:47:51.273Z,6.32
2023-03-28T08:48:46.481Z,6.31
2023-03-28T08:49:42.080Z,6.27
2023-03-28T08:50:37.490Z,6.23
2023-03-28T08:51:32.982Z,6.17
2023-03-28T08:52:28.334Z,6.11
2023-03-28T08:53:24.024Z,5.98
2023-03-28T08:54:19.450Z,5.90
2023-03-28T08:55:14.948Z,6.01
2023-03-28T08:56:09.856Z,6.37
2023-03-28T08:57:04.938Z,6.86
2023-03-28T08:58:00.041Z,7.18
2023-03-28T08:58:55.235Z,7.53
2023-03-28T08:59:56.494Z,7.89
2023-03-28T09:00:51.906Z,7.77
2023-03-28T09:01:47.414Z,7.62
2023-03-28T09:02:43.113Z,7.58
2023-03-28T09:03:38.534Z,7.56
2023-03-28T09:04:34.127Z,7.48
2023-03-28T09:05:30.348Z,7.35
2023-03-28T09:06:25.677Z,7.25
2023-03-28T09:07:21.574Z,7.24
2023-03-28T09:08:19.738Z,7.10
2023-03-28T09:09:12.546Z,6.82
2023-03-28T09:10:07.985Z,6.99
2023-03-28T09:11:02.913Z,7.24
2023-03-28T09:12:01.936Z,7.54
2023-03-28T09:12:57.418Z,7.45
2023-03-28T09:13:52.805Z,7.37
2023-03-28T09:14:50.704Z,7.36
2023-03-28T09:15:44.374Z,7.35
2023-03-28T09:16:39.875Z,7.54
2023-03-28T09:17:36.207Z,7.99
2023-03-28T09:18:31.768Z,8.18
2023-03-28T09:19:36.995Z,8.05
2023-03-28T09:20:24.110Z,7.92
2023-03-28T09:21:18.564Z,7.51
2023-03-28T09:22:15.941Z,7.04
2023-03-28T09:23:10.581Z,6.72
2023-03-28T09:24:06.587Z,6.72
2023-03-28T09:25:01.686Z,6.78
2023-03-28T09:25:58.869Z,6.74
2023-03-28T09:26:53.015Z,6.66
2023-03-28T09:27:48.546Z,6.67
2023-03-28T09:28:43.895Z,6.62
2023-03-28T09:29:40.463Z,6.50
2023-03-28T09:30:35.724Z,6.45
2023-03-28T09:31:31.604Z,6.45
2023-03-28T09:32:27.022Z,6.47
2023-03-28T09:33:22.587Z,6.40
2023-03-28T09:34:18.457Z,6.32
2023-03-28T09:35:13.762Z,6.26
2023-03-28T09:36:09.612Z,6.21
2023-03-28T09:37:05.008Z,6.19
2023-03-28T09:38:00.293Z,6.61
2023-03-28T09:38:56.745Z,7.17
2023-03-28T09:39:51.764Z,7.65
2023-03-28T09:40:47.239Z,7.98
2023-03-28T09:41:43.535Z,8.28
2023-03-28T09:42:39.012Z,8.74
2023-03-28T09:43:34.993Z,9.14
2023-03-28T09:44:31.239Z,9.38
2023-03-28T09:45:25.981Z,9.61
2023-03-28T09:46:22.277Z,9.84
2023-03-28T09:47:17.725Z,9.75
2023-03-28T09:48:13.910Z,9.25
2023-03-28T09:49:08.924Z,8.73
2023-03-28T09:50:12.502Z,8.41
2023-03-28T09:51:01.424Z,8.19
2023-03-28T09:51:55.724Z,7.99
2023-03-28T09:52:51.089Z,7.92
2023-03-28T09:53:47.707Z,7.85
2023-03-28T09:54:42.929Z,7.63
2023-03-28T09:55:38.783Z,7.41
2023-03-28T09:56:34.238Z,7.29
2023-03-28T09:57:29.817Z,7.24
2023-03-28T09:58:25.591Z,7.55
2023-03-28T09:59:21.081Z,8.05
2023-03-28T10:00:16.550Z,8.55
2023-03-28T10:01:11.926Z,9.02
2023-03-28T10:02:07.673Z,9.34
2023-03-28T10:03:03.269Z,9.50
2023-03-28T10:03:58.770Z,9.78
2023-03-28T10:04:55.030Z,9.91
2023-03-28T10:05:50.308Z,10.00
2023-03-28T10:06:46.128Z,9.81
2023-03-28T10:07:41.756Z,9.39
2023-03-28T10:08:37.063Z,9.20
2023-03-28T10:09:32.758Z,9.47
2023-03-28T10:10:28.170Z,9.63
2023-03-28T10:11:23.913Z,9.94
2023-03-28T10:12:19.311Z,10.17
2023-03-28T10:13:14.965Z,9.86
2023-03-28T10:14:10.528Z,9.61
2023-03-28T10:15:05.973Z,9.53
2023-03-28T10:16:01.398Z,9.75
2023-03-28T10:16:57.791Z,9.75
2023-03-28T10:17:53.458Z,9.46
2023-03-28T10:18:48.863Z,9.05
2023-03-28T10:19:44.330Z,8.79
2023-03-28T10:20:39.722Z,8.64
2023-03-28T10:21:34.791Z,8.67
2023-03-28T10:22:29.805Z,8.55
2023-03-28T10:23:25.137Z,8.39
2023-03-28T10:24:19.987Z,8.21
2023-03-28T10:25:15.175Z,8.05
2023-03-28T10:26:10.168Z,7.95
2023-03-28T10:27:05.262Z,7.71
2023-03-28T10:28:00.483Z,7.70
2023-03-28T10:28:55.440Z,8.17
2023-03-28T10:29:50.490Z,8.78
2023-03-28T10:30:45.591Z,9.25
2023-03-28T10:31:40.674Z,9.58
2023-03-28T10:32:35.822Z,9.72
2023-03-28T10:33:30.736Z,9.98
2023-03-28T10:34:29.896Z,10.27
2023-03-28T10:35:26.635Z,10.44
2023-03-28T10:36:19.767Z,10.30
2023-03-28T10:37:14.712Z,9.91
2023-03-28T10:38:09.801Z,9.63
2023-03-28T10:39:05.039Z,9.47
2023-03-28T10:39:59.996Z,9.46
2023-03-28T10:40:55.052Z,9.83
2023-03-28T10:41:50.055Z,10.02
2023-03-28T10:42:45.040Z,10.23
2023-03-28T10:43:41.177Z,10.33
2023-03-28T10:44:36.731Z,10.66
2023-03-28T10:45:32.700Z,10.92
2023-03-28T10:46:28.164Z,11.23
2023-03-28T10:47:23.694Z,11.35
2023-03-28T10:48:19.364Z,11.35
2023-03-28T10:49:15.132Z,11.53
2023-03-28T10:50:10.742Z,11.41
2023-03-28T10:51:06.078Z,11.46
2023-03-28T10:52:01.415Z,11.38
2023-03-28T10:52:57.279Z,11.14
2023-03-28T10:53:52.683Z,10.53
2023-03-28T10:54:48.177Z,9.66
2023-03-28T10:55:44.526Z,9.08
2023-03-28T10:56:40.090Z,9.46
2023-03-28T10:57:35.927Z,9.82
2023-03-28T10:58:31.469Z,10.38
2023-03-28T10:59:26.982Z,10.46
2023-03-28T11:00:22.692Z,10.33
2023-03-28T11:01:18.168Z,10.09
2023-03-28T11:02:14.127Z,9.69
2023-03-28T11:03:09.406Z,9.22
2023-03-28T11:04:05.016Z,8.97
2023-03-28T11:05:00.694Z,8.97
2023-03-28T11:06:08.582Z,8.92
2023-03-28T11:06:52.458Z,8.80
2023-03-28T11:07:47.031Z,8.75
2023-03-28T11:08:42.888Z,9.00
2023-03-28T11:09:38.208Z,9.21
2023-03-28T11:10:33.647Z,9.11
2023-03-28T11:11:29.328Z,9.35
2023-03-28T11:12:28.984Z,9.80
2023-03-28T11:13:21.144Z,10.22
2023-03-28T11:14:15.655Z,10.55
2023-03-28T11:15:11.332Z,10.58
2023-03-28T11:16:06.874Z,10.20
2023-03-28T11:17:02.399Z,10.00
2023-03-28T11:17:58.691Z,9.81
2023-03-28T11:18:54.155Z,9.54
2023-03-28T11:19:50.000Z,9.58
2023-03-28T11:20:45.476Z,9.66
2023-03-28T11:21:40.829Z,9.70
2023-03-28T11:22:37.028Z,10.12
2023-03-28T11:23:32.446Z,10.67
2023-03-28T11:24:28.075Z,11.23
2023-03-28T11:25:23.358Z,11.46
2023-03-28T11:26:18.902Z,11.82
2023-03-28T11:27:16.581Z,12.00
2023-03-28T11:28:10.979Z,11.90
2023-03-28T11:29:06.541Z,11.59
2023-03-28T11:30:04.564Z,11.27
2023-03-28T11:31:00.224Z,10.89
2023-03-28T11:31:55.559Z,10.47
2023-03-28T11:32:51.282Z,10.26
2023-03-28T11:33:46.701Z,10.11
2023-03-28T11:34:42.866Z,10.22
2023-03-28T11:35:38.517Z,10.36
2023-03-28T11:36:33.810Z,10.01
2023-03-28T11:37:29.720Z,9.65
2023-03-28T11:38:25.108Z,9.43
2023-03-28T11:39:20.890Z,9.52
2023-03-28T11:40:16.394Z,9.77
2023-03-28T11:41:11.878Z,9.90
2023-03-28T11:42:07.712Z,9.87
2023-03-28T11:43:03.126Z,9.31
2023-03-28T11:43:58.516Z,8.87
2023-03-28T11:44:54.783Z,8.67
2023-03-28T11:45:52.486Z,9.25
2023-03-28T11:46:45.749Z,9.55
2023-03-28T11:47:40.787Z,9.38
2023-03-28T11:48:36.230Z,9.06
2023-03-28T11:49:31.034Z,8.78
2023-03-28T11:50:26.096Z,8.57
2023-03-28T11:51:21.146Z,8.27
2023-03-28T11:52:16.238Z,8.11
2023-03-28T11:53:11.269Z,8.27
2023-03-28T11:54:06.370Z,8.83
2023-03-28T11:55:01.556Z,9.08
2023-03-28T11:55:56.527Z,9.28
2023-03-28T11:56:51.773Z,9.62
2023-03-28T11:57:49.783Z,9.99
2023-03-28T11:58:44.797Z,10.22
2023-03-28T11:59:39.982Z,10.61
2023-03-28T12:00:34.960Z,10.96
2023-03-28T12:01:29.998Z,11.34
2023-03-28T12:02:25.188Z,11.58
2023-03-28T12:03:20.230Z,11.63
2023-03-28T12:04:15.339Z,11.26
2023-03-28T12:05:10.426Z,10.79
2023-03-28T12:06:05.788Z,10.48
2023-03-28T12:07:03.407Z,10.38
2023-03-28T12:07:57.482Z,10.57
2023-03-28T12:08:53.445Z,10.51
2023-03-28T12:09:48.976Z,10.74
2023-03-28T12:10:44.375Z,11.01
2023-03-28T12:11:40.071Z,11.22
2023-03-28T12:12:35.580Z,11.29
2023-03-28T12:13:31.462Z,11.29
2023-03-28T12:14:26.851Z,11.06
2023-03-28T12:15:22.412Z,10.88
2023-03-28T12:16:17.983Z,10.49